Time;durP1;ratioP1;P1;durP2;ratioP2;P2;SDS_P1;SDS_P2;PMS_P1;PMS_P2;Temp;Humidity;BMP_temperature;BMP_pressure;BME280_temperature;BME280_humidity;BME280_pressure;Samples;Min_cycle;Max_cycle;Signal;HPM_P1;HPM_P2
2021/08/12 00:01:08;;;;;;;5.50;4.03;;;25.00;91.50;;;;;;5012368;28;20053;-76
2021/08/12 00:03:35;;;;;;;4.68;4.30;;;24.90;91.50;;;;;;4994530;28;20392;-76
2021/08/12 00:06:00;;;;;;;5.20;4.15;;;24.90;91.60;;;;;;5012352;28;20033;-76
2021/08/12 00:08:26;;;;;;;7.07;4.55;;;24.90;91.60;;;;;;5011702;28;20026;-76
2021/08/12 00:10:52;;;;;;;6.93;5.00;;;24.90;91.70;;;;;;5012186;28;20398;-76
2021/08/12 00:13:20;;;;;;;7.00;4.93;;;24.80;91.70;;;;;;5011930;28;20042;-76
2021/08/12 00:15:46;;;;;;;4.57;4.25;;;24.80;91.70;;;;;;5012212;28;20029;-76
2021/08/12 00:18:12;;;;;;;5.13;4.20;;;24.80;91.70;;;;;;5011811;28;20065;-76
2021/08/12 00:20:38;;;;;;;4.78;4.28;;;24.80;91.60;;;;;;5012253;28;20053;-76
2021/08/12 00:23:06;;;;;;;4.78;4.20;;;24.90;91.40;;;;;;5012041;28;20034;-76
2021/08/12 00:25:32;;;;;;;6.68;4.43;;;24.90;91.40;;;;;;5011906;28;20395;-76
2021/08/12 00:27:58;;;;;;;4.75;3.92;;;24.90;91.20;;;;;;5011644;28;20026;-76
2021/08/12 00:30:24;;;;;;;4.82;4.45;;;25.00;91.10;;;;;;5011969;28;20388;-76
2021/08/12 00:32:49;;;;;;;6.10;4.47;;;25.10;91.00;;;;;;5011982;28;20026;-76
2021/08/12 00:35:15;;;;;;;7.45;4.70;;;25.10;90.90;;;;;;5011214;28;20177;-75
2021/08/12 00:37:41;;;;;;;9.50;4.28;;;25.10;90.80;;;;;;5011491;28;20049;-76
2021/08/12 00:40:08;;;;;;;4.50;4.20;;;25.10;90.80;;;;;;5011594;28;20026;-76
2021/08/12 00:42:34;;;;;;;4.85;4.38;;;25.10;90.70;;;;;;4994123;28;20501;-76
2021/08/12 00:45:00;;;;;;;6.03;4.05;;;25.10;90.60;;;;;;4992430;28;20431;-76
2021/08/12 00:47:26;;;;;;;4.72;4.30;;;25.20;90.60;;;;;;5015161;28;20029;-76
2021/08/12 00:49:52;;;;;;;6.60;4.80;;;25.20;90.50;;;;;;5011725;28;20380;-76
2021/08/12 00:52:19;;;;;;;4.47;4.07;;;25.10;90.50;;;;;;5011636;28;20029;-76
2021/08/12 00:54:44;;;;;;;7.82;5.10;;;25.10;90.60;;;;;;5011581;28;20026;-76
2021/08/12 00:57:12;;;;;;;5.07;3.83;;;25.20;90.40;;;;;;5011396;28;20025;-76
2021/08/12 00:59:39;;;;;;;5.35;4.85;;;25.20;90.40;;;;;;5011539;28;20058;-76
2021/08/12 01:02:09;;;;;;;6.15;3.90;;;25.10;90.40;;;;;;5011633;28;20317;-76
2021/08/12 01:04:45;;;;;;;4.82;4.47;;;25.10;90.40;;;;;;5011476;28;20026;-76
2021/08/12 01:07:33;;;;;;;6.53;4.47;;;25.10;90.30;;;;;;5011163;28;20018;-76
2021/08/12 01:10:28;;;;;;;7.82;4.53;;;25.10;90.30;;;;;;4993851;28;20476;-76
2021/08/12 01:13:05;;;;;;;6.35;4.82;;;25.20;90.40;;;;;;5011259;28;20361;-76
2021/08/12 01:15:40;;;;;;;7.43;4.82;;;25.20;90.30;;;;;;4993627;28;20054;-76
2021/08/12 01:18:22;;;;;;;4.80;4.40;;;25.20;90.40;;;;;;5011021;28;20113;-76
2021/08/12 01:21:25;;;;;;;4.50;4.20;;;25.20;90.40;;;;;;5014307;28;20021;-76
2021/08/12 01:23:57;;;;;;;6.32;4.55;;;25.20;90.30;;;;;;5015328;28;20415;-76
2021/08/12 01:26:23;;;;;;;17.08;4.20;;;25.20;90.30;;;;;;4997091;28;20041;-76
2021/08/12 01:28:52;;;;;;;9.23;4.28;;;25.20;90.20;;;;;;5015242;28;20404;-76
2021/08/12 01:31:40;;;;;;;5.57;4.32;;;25.20;90.40;;;;;;5015291;28;20029;-76
2021/08/12 01:34:11;;;;;;;6.25;4.60;;;25.10;90.60;;;;;;5014810;28;20038;-76
2021/08/12 01:36:41;;;;;;;6.63;4.82;;;25.00;90.90;;;;;;5029921;28;20029;-76
2021/08/12 01:39:11;;;;;;;4.82;4.32;;;25.00;91.00;;;;;;5014963;28;20504;-76
2021/08/12 01:41:38;;;;;;;6.88;4.63;;;25.00;90.90;;;;;;4997380;28;20072;-76
2021/08/12 01:44:06;;;;;;;9.90;5.30;;;24.90;91.20;;;;;;4996931;28;20125;-76
2021/08/12 01:46:34;;;;;;;5.28;4.45;;;24.80;91.40;;;;;;5014747;28;20100;-76
2021/08/12 01:49:03;;;;;;;6.15;4.65;;;24.70;91.60;;;;;;5014649;28;20022;-76
2021/08/12 01:51:31;;;;;;;4.75;4.38;;;24.60;91.80;;;;;;5014813;28;20022;-76
2021/08/12 01:53:59;;;;;;;4.40;3.97;;;24.60;91.90;;;;;;5014808;28;20217;-76
2021/08/12 01:56:27;;;;;;;5.95;4.72;;;24.60;92.00;;;;;;5014249;28;20105;-76
2021/08/12 01:58:56;;;;;;;5.75;4.70;;;24.50;92.10;;;;;;5014034;28;20076;-76
2021/08/12 02:01:22;;;;;;;5.25;4.75;;;24.40;92.20;;;;;;5014621;28;20022;-76
2021/08/12 02:03:50;;;;;;;7.70;4.72;;;24.50;92.10;;;;;;5011187;28;20030;-76
2021/08/12 02:06:16;;;;;;;7.57;4.10;;;24.50;92.10;;;;;;5008637;28;20488;-76
2021/08/12 02:08:42;;;;;;;5.32;4.57;;;24.50;92.20;;;;;;5007165;28;20053;-76
2021/08/12 02:11:07;;;;;;;7.90;4.32;;;24.40;92.20;;;;;;5003490;28;20068;-76
2021/08/12 02:13:33;;;;;;;4.40;4.10;;;24.50;92.10;;;;;;5008733;28;20049;-76
2021/08/12 02:15:59;;;;;;;5.18;4.20;;;24.60;92.00;;;;;;5007822;28;20022;-76
2021/08/12 02:18:26;;;;;;;5.28;4.07;;;24.60;91.80;;;;;;4993379;28;20136;-76
2021/08/12 02:21:06;;;;;;;9.90;4.65;;;24.60;92.00;;;;;;5014108;28;20034;-76
2021/08/12 02:23:34;;;;;;;5.60;4.90;;;24.60;92.00;;;;;;5014104;28;20034;-76
2021/08/12 02:26:05;;;;;;;8.75;4.50;;;24.60;92.00;;;;;;5014254;28;20045;-76
2021/08/12 02:28:32;;;;;;;5.07;4.68;;;24.60;92.00;;;;;;5013566;28;20109;-76
2021/08/12 02:30:59;;;;;;;6.38;4.47;;;24.50;92.10;;;;;;5014166;28;20408;-76
2021/08/12 02:33:32;;;;;;;4.60;4.20;;;24.40;92.10;;;;;;5013967;28;20115;-76
2021/08/12 02:35:58;;;;;;;5.95;4.85;;;24.40;92.20;;;;;;5013857;28;20026;-76
2021/08/12 02:38:25;;;;;;;5.43;4.53;;;24.30;92.20;;;;;;5013513;28;20036;-76
2021/08/12 02:40:52;;;;;;;5.70;5.18;;;24.40;92.10;;;;;;4996224;28;20033;-76
2021/08/12 02:43:20;;;;;;;4.72;4.40;;;24.40;92.10;;;;;;5013306;28;20546;-76
2021/08/12 02:45:47;;;;;;;4.78;4.38;;;24.30;92.20;;;;;;5013791;28;20022;-76
2021/08/12 02:48:14;;;;;;;4.95;4.55;;;24.30;92.30;;;;;;5013447;28;20034;-76
2021/08/12 02:50:43;;;;;;;6.88;4.97;;;24.20;92.40;;;;;;5013505;28;20101;-76
2021/08/12 02:53:09;;;;;;;6.55;4.72;;;24.30;92.40;;;;;;5013770;28;20507;-76
2021/08/12 02:55:36;;;;;;;4.82;4.40;;;24.30;92.40;;;;;;5013524;28;20034;-76
2021/08/12 02:58:03;;;;;;;4.50;4.10;;;24.20;92.50;;;;;;5013320;28;20040;-76
2021/08/12 03:00:31;;;;;;;6.72;4.82;;;24.20;92.50;;;;;;4995908;28;20427;-76
2021/08/12 03:02:57;;;;;;;6.82;4.95;;;24.20;92.50;;;;;;5013452;28;20481;-76
2021/08/12 03:05:24;;;;;;;5.60;4.93;;;24.20;92.50;;;;;;5013100;28;20080;-76
2021/08/12 03:07:50;;;;;;;4.78;4.25;;;24.20;92.60;;;;;;5013239;28;20036;-76
2021/08/12 03:10:18;;;;;;;10.73;5.10;;;24.10;92.60;;;;;;5013275;28;20049;-76
2021/08/12 03:12:46;;;;;;;4.70;4.25;;;24.20;92.50;;;;;;4995438;28;20483;-76
2021/08/12 03:15:13;;;;;;;4.70;4.30;;;24.10;92.40;;;;;;5013198;28;20018;-76
2021/08/12 03:17:39;;;;;;;8.07;4.35;;;24.10;92.50;;;;;;4995264;28;20112;-76
2021/08/12 03:20:07;;;;;;;4.78;4.20;;;24.20;92.40;;;;;;5012912;28;20026;-76
2021/08/12 03:22:33;;;;;;;5.25;4.72;;;24.20;92.20;;;;;;5013147;28;20022;-76
2021/08/12 03:24:59;;;;;;;9.50;4.50;;;24.20;92.30;;;;;;5012834;28;20145;-76
2021/08/12 03:27:25;;;;;;;5.20;4.60;;;24.20;92.30;;;;;;5012792;28;20026;-76
2021/08/12 03:29:51;;;;;;;5.80;4.88;;;24.20;92.30;;;;;;5012958;28;20026;-76
2021/08/12 03:32:18;;;;;;;8.88;4.88;;;24.10;92.50;;;;;;5012709;28;20495;-76
2021/08/12 03:34:44;;;;;;;5.22;4.40;;;24.10;92.50;;;;;;5012760;28;20030;-76
2021/08/12 03:37:10;;;;;;;5.25;4.75;;;24.00;92.40;;;;;;5012592;28;20034;-76
2021/08/12 03:39:36;;;;;;;7.00;4.10;;;24.00;92.30;;;;;;5012790;28;20026;-76
2021/08/12 03:42:01;;;;;;;5.55;4.80;;;24.10;92.30;;;;;;5012151;28;20100;-76
2021/08/12 03:44:27;;;;;;;6.35;4.90;;;24.00;92.30;;;;;;5012676;28;20022;-76
2021/08/12 03:46:53;;;;;;;5.90;4.80;;;24.10;92.40;;;;;;5012503;28;20036;-76
2021/08/12 03:49:19;;;;;;;5.35;4.85;;;24.10;92.20;;;;;;5012388;28;20116;-76
2021/08/12 03:51:45;;;;;;;9.02;4.30;;;24.10;92.30;;;;;;4994775;28;20032;-76
2021/08/12 03:54:11;;;;;;;9.05;4.68;;;24.10;92.40;;;;;;5012401;28;20109;-76
2021/08/12 03:56:37;;;;;;;4.72;4.43;;;24.20;92.40;;;;;;5012251;28;20547;-76
2021/08/12 03:59:04;;;;;;;5.95;4.47;;;24.20;92.30;;;;;;5012313;28;20025;-76
2021/08/12 04:01:30;;;;;;;6.07;4.60;;;24.10;92.30;;;;;;5012582;28;20022;-76
2021/08/12 04:03:55;;;;;;;6.82;4.72;;;24.10;92.40;;;;;;4994770;28;20032;-76
2021/08/12 04:06:21;;;;;;;4.70;4.20;;;24.10;92.60;;;;;;5027034;28;20034;-76
2021/08/12 04:08:47;;;;;;;5.75;4.70;;;24.00;92.60;;;;;;5012335;28;20055;-76
2021/08/12 04:11:13;;;;;;;4.30;3.92;;;24.00;92.70;;;;;;5012139;28;20033;-76
2021/08/12 04:13:39;;;;;;;6.38;4.35;;;23.90;92.80;;;;;;5012136;28;20046;-76
2021/08/12 04:16:05;;;;;;;4.90;4.45;;;24.00;92.70;;;;;;5011522;28;20025;-76
2021/08/12 04:18:31;;;;;;;4.88;4.50;;;24.00;92.60;;;;;;5012185;28;20030;-76
2021/08/12 04:20:56;;;;;;;4.47;3.90;;;24.00;92.60;;;;;;5012200;28;20048;-76
2021/08/12 04:23:22;;;;;;;6.30;4.53;;;24.00;92.60;;;;;;5012058;28;20497;-76
2021/08/12 04:25:49;;;;;;;5.85;5.07;;;24.00;92.60;;;;;;5012083;28;20021;-76
2021/08/12 04:28:15;;;;;;;4.95;4.63;;;24.00;92.60;;;;;;5011668;28;20540;-76
2021/08/12 04:30:41;;;;;;;6.43;5.10;;;24.00;92.70;;;;;;5011934;28;20153;-76
2021/08/12 04:33:07;;;;;;;5.35;4.15;;;24.00;92.80;;;;;;5012043;28;20032;-76
2021/08/12 04:35:32;;;;;;;5.88;4.18;;;24.00;92.90;;;;;;5011771;28;20041;-76
2021/08/12 04:37:58;;;;;;;5.75;4.38;;;24.00;93.00;;;;;;5011439;28;20030;-76
2021/08/12 04:40:24;;;;;;;7.00;4.75;;;23.90;93.00;;;;;;5027011;28;20051;-76
2021/08/12 04:42:52;;;;;;;9.20;4.63;;;24.00;93.00;;;;;;5011779;28;20053;-76
2021/08/12 04:45:19;;;;;;;5.35;4.85;;;23.90;93.00;;;;;;4994282;28;20032;-76
2021/08/12 04:47:45;;;;;;;7.57;5.05;;;23.90;93.10;;;;;;5011137;28;20026;-76
2021/08/12 04:50:11;;;;;;;5.78;4.70;;;23.90;93.20;;;;;;5011776;28;20029;-76
2021/08/12 04:52:39;;;;;;;5.50;5.00;;;23.90;93.30;;;;;;4994224;28;20030;-76
2021/08/12 04:55:06;;;;;;;5.53;4.68;;;23.90;93.40;;;;;;5013512;28;21137;-75
2021/08/12 04:57:31;;;;;;;4.95;4.55;;;23.90;93.50;;;;;;5000137;28;20061;-76
2021/08/12 04:59:57;;;;;;;7.13;4.97;;;23.90;93.40;;;;;;5014957;28;20053;-76
2021/08/12 05:02:23;;;;;;;10.68;4.88;;;23.90;93.50;;;;;;5014352;28;20466;-76
2021/08/12 05:04:48;;;;;;;5.20;4.70;;;23.90;93.60;;;;;;4997511;28;20030;-76
2021/08/12 05:07:14;;;;;;;4.93;4.40;;;23.90;93.80;;;;;;4997783;28;20038;-76
2021/08/12 05:09:40;;;;;;;6.03;4.63;;;23.90;93.90;;;;;;5015484;28;20030;-76
2021/08/12 05:12:06;;;;;;;5.10;4.70;;;23.90;93.70;;;;;;5014807;28;20105;-76
2021/08/12 05:14:32;;;;;;;7.22;5.03;;;24.00;93.70;;;;;;5014124;28;20042;-76
2021/08/12 05:16:57;;;;;;;5.25;4.68;;;24.00;93.80;;;;;;5015039;28;20129;-76
2021/08/12 05:19:24;;;;;;;8.07;4.50;;;24.00;93.80;;;;;;5015243;28;20534;-76
2021/08/12 05:21:50;;;;;;;6.47;4.90;;;24.00;93.90;;;;;;5013919;28;20057;-76
2021/08/12 05:24:15;;;;;;;10.57;5.00;;;24.00;93.80;;;;;;5013399;28;20077;-76
2021/08/12 05:26:41;;;;;;;5.47;4.78;;;24.10;93.60;;;;;;5013047;28;20511;-76
2021/08/12 05:29:07;;;;;;;5.88;5.10;;;24.20;93.60;;;;;;5013291;28;20580;-76
2021/08/12 05:31:34;;;;;;;6.05;4.50;;;24.20;93.60;;;;;;5028527;28;20029;-76
2021/08/12 05:34:00;;;;;;;5.55;4.50;;;24.30;93.80;;;;;;5013347;28;20026;-76
2021/08/12 05:36:25;;;;;;;5.90;5.28;;;24.20;93.80;;;;;;5013153;28;20038;-76
2021/08/12 05:38:52;;;;;;;5.68;4.82;;;24.30;93.90;;;;;;5015035;28;20026;-76
2021/08/12 05:41:18;;;;;;;5.32;4.80;;;24.30;93.90;;;;;;5015013;28;20022;-76
2021/08/12 05:43:44;;;;;;;5.90;5.30;;;24.30;93.90;;;;;;5014530;28;20037;-76
2021/08/12 05:46:09;;;;;;;7.70;5.20;;;24.20;94.20;;;;;;5014848;28;20034;-76
2021/08/12 05:48:35;;;;;;;5.57;5.00;;;24.30;94.10;;;;;;5014753;28;20430;-76
2021/08/12 05:51:01;;;;;;;6.13;4.50;;;24.40;94.00;;;;;;5014701;28;20435;-76
2021/08/12 05:53:30;;;;;;;5.65;5.03;;;24.40;93.80;;;;;;5014772;28;20025;-76
2021/08/12 05:55:56;;;;;;;6.60;4.65;;;24.60;93.90;;;;;;5014655;28;20116;-76
2021/08/12 05:58:21;;;;;;;10.27;4.95;;;24.60;93.90;;;;;;5014677;28;20105;-76
2021/08/12 06:00:47;;;;;;;6.30;4.55;;;24.70;93.80;;;;;;5014599;28;20025;-76
2021/08/12 06:03:14;;;;;;;7.32;4.80;;;24.70;93.90;;;;;;5014427;28;20542;-76
2021/08/12 06:05:40;;;;;;;5.10;4.70;;;24.80;93.80;;;;;;5013843;28;20025;-76
2021/08/12 06:08:08;;;;;;;7.32;4.53;;;24.80;93.80;;;;;;5014567;28;20101;-76
2021/08/12 06:10:36;;;;;;;8.27;5.13;;;24.90;93.60;;;;;;5014657;28;20558;-76
2021/08/12 06:13:03;;;;;;;5.53;5.03;;;25.00;93.60;;;;;;5014287;28;20105;-76
2021/08/12 06:15:29;;;;;;;6.05;5.10;;;25.10;93.60;;;;;;5014093;28;20034;-76
2021/08/12 06:17:55;;;;;;;5.40;4.97;;;25.10;93.60;;;;;;4996760;28;20022;-76
2021/08/12 06:20:22;;;;;;;4.63;4.22;;;25.20;93.50;;;;;;5013940;28;20108;-76
2021/08/12 06:22:50;;;;;;;5.65;4.70;;;25.20;93.60;;;;;;5014334;28;20029;-76
2021/08/12 06:25:17;;;;;;;5.28;4.68;;;25.30;93.50;;;;;;5013519;28;20117;-76
2021/08/12 06:27:43;;;;;;;10.13;4.82;;;25.30;93.60;;;;;;5013832;28;20010;-76
2021/08/12 06:30:10;;;;;;;5.22;4.72;;;25.40;93.80;;;;;;5013903;28;20022;-76
2021/08/12 06:32:37;;;;;;;5.15;4.75;;;25.40;94.00;;;;;;4996485;28;20420;-76
2021/08/12 06:35:05;;;;;;;6.28;4.90;;;25.50;94.30;;;;;;5013618;28;20102;-76
2021/08/12 06:37:39;;;;;;;5.50;5.00;;;25.50;94.30;;;;;;5014016;28;20025;-76
2021/08/12 06:40:06;;;;;;;6.57;5.28;;;25.50;94.70;;;;;;5009709;28;20489;-76
2021/08/12 06:42:31;;;;;;;7.22;4.70;;;25.70;93.90;;;;;;4994241;28;20022;-76
2021/08/12 06:44:59;;;;;;;4.82;4.43;;;25.80;94.10;;;;;;5012984;28;20056;-76
2021/08/12 06:47:25;;;;;;;8.40;4.57;;;25.80;93.30;;;;;;5013599;28;20045;-76
2021/08/12 06:49:51;;;;;;;6.85;4.72;;;26.00;93.00;;;;;;5013424;28;20404;-76
2021/08/12 06:52:16;;;;;;;5.07;4.68;;;26.00;94.00;;;;;;4994889;28;20076;-76
2021/08/12 06:54:42;;;;;;;4.82;4.32;;;26.10;93.70;;;;;;5012450;28;20266;-76
2021/08/12 06:57:08;;;;;;;12.02;5.13;;;26.10;94.00;;;;;;5012738;28;20435;-76
2021/08/12 06:59:34;;;;;;;6.60;4.90;;;26.10;94.10;;;;;;5012238;28;20194;-76
2021/08/12 07:01:59;;;;;;;7.00;4.97;;;26.20;93.90;;;;;;5012888;28;20026;-76
2021/08/12 07:04:25;;;;;;;5.35;4.60;;;26.30;93.50;;;;;;5012938;28;20033;-76
2021/08/12 07:06:51;;;;;;;5.97;4.82;;;26.30;93.50;;;;;;5013123;28;20114;-76
2021/08/12 07:09:17;;;;;;;5.45;4.80;;;26.40;93.30;;;;;;4995866;28;20028;-76
2021/08/12 07:11:42;;;;;;;5.57;5.07;;;26.40;93.30;;;;;;5013229;28;20476;-76
2021/08/12 07:14:08;;;;;;;7.50;5.53;;;26.50;93.00;;;;;;5013192;28;20128;-76
2021/08/12 07:16:34;;;;;;;6.40;5.00;;;26.50;93.20;;;;;;5012680;28;20030;-76
2021/08/12 07:18:59;;;;;;;12.07;5.40;;;26.60;92.70;;;;;;4995168;28;20388;-76
2021/08/12 07:21:25;;;;;;;6.18;5.57;;;26.70;93.60;;;;;;5013090;28;20113;-76
2021/08/12 07:23:51;;;;;;;6.82;6.03;;;26.70;93.10;;;;;;5013041;28;20029;-76
2021/08/12 07:26:17;;;;;;;8.85;6.53;;;26.70;94.00;;;;;;5013205;28;20018;-76
2021/08/12 07:28:44;;;;;;;6.22;5.70;;;26.70;94.30;;;;;;5012913;28;20026;-76
2021/08/12 07:31:15;;;;;;;9.52;6.22;;;26.70;93.60;;;;;;5012802;28;20034;-76
2021/08/12 07:33:40;;;;;;;7.28;5.88;;;26.70;93.80;;;;;;5012948;28;20033;-76
2021/08/12 07:36:07;;;;;;;8.55;5.22;;;26.70;94.40;;;;;;5012880;28;20030;-76
2021/08/12 07:38:33;;;;;;;6.43;5.75;;;26.80;94.20;;;;;;4995082;28;20391;-76
2021/08/12 07:41:00;;;;;;;14.68;5.72;;;26.90;94.00;;;;;;5012750;28;20029;-76
2021/08/12 07:43:27;;;;;;;6.90;5.18;;;27.10;93.80;;;;;;5012469;28;20033;-76
2021/08/12 07:45:53;;;;;;;8.00;5.88;;;27.30;93.30;;;;;;5012745;28;20034;-76
2021/08/12 07:48:18;;;;;;;8.77;6.32;;;27.40;92.80;;;;;;5012664;28;20030;-76
2021/08/12 07:50:45;;;;;;;9.10;5.65;;;27.40;93.50;;;;;;5012478;28;20022;-76
2021/08/12 07:53:11;;;;;;;7.53;4.90;;;27.40;92.40;;;;;;5012807;28;20499;-76
2021/08/12 07:55:37;;;;;;;9.98;4.57;;;27.40;92.40;;;;;;5012592;28;20075;-76
2021/08/12 07:58:03;;;;;;;5.07;4.65;;;27.40;91.60;;;;;;5012553;28;20058;-76
2021/08/12 08:00:29;;;;;;;6.93;5.03;;;27.40;91.50;;;;;;5012201;28;20034;-76
2021/08/12 08:02:55;;;;;;;4.78;4.22;;;27.50;91.10;;;;;;5012341;28;20026;-76
2021/08/12 08:05:24;;;;;;;5.13;4.32;;;27.40;90.60;;;;;;5012278;28;20038;-76
2021/08/12 08:07:52;;;;;;;5.22;4.72;;;27.50;91.30;;;;;;5012167;28;20535;-76
2021/08/12 08:10:19;;;;;;;4.80;4.40;;;27.50;89.20;;;;;;4994363;28;20029;-76
2021/08/12 08:12:45;;;;;;;5.80;4.50;;;27.50;89.30;;;;;;5012100;28;20564;-76
2021/08/12 08:15:14;;;;;;;4.50;4.10;;;27.50;86.70;;;;;;4994493;28;20404;-76
2021/08/12 08:17:40;;;;;;;5.15;4.30;;;27.50;87.60;;;;;;5012241;28;20033;-76
2021/08/12 08:20:08;;;;;;;5.05;4.65;;;27.60;87.50;;;;;;4994479;28;20022;-76
2021/08/12 08:22:35;;;;;;;5.47;4.78;;;27.70;86.80;;;;;;5004196;28;20080;-76
2021/08/12 08:25:01;;;;;;;6.07;4.07;;;27.70;86.40;;;;;;5002674;28;20066;-76
2021/08/12 08:27:26;;;;;;;5.82;4.82;;;27.70;86.90;;;;;;5006143;28;20030;-76
2021/08/12 08:29:52;;;;;;;14.27;5.35;;;27.70;86.50;;;;;;4994242;28;20026;-76
2021/08/12 08:32:21;;;;;;;6.55;5.15;;;27.70;86.80;;;;;;5011611;28;20025;-76
2021/08/12 08:34:48;;;;;;;5.10;4.68;;;27.80;87.70;;;;;;5012034;28;20500;-76
2021/08/12 08:37:15;;;;;;;6.40;4.88;;;27.80;89.60;;;;;;5012123;28;20112;-76
2021/08/12 08:39:41;;;;;;;7.68;4.82;;;27.70;90.00;;;;;;4993805;28;20034;-76
2021/08/12 08:42:08;;;;;;;8.35;5.25;;;27.80;89.40;;;;;;5010399;28;20030;-75
2021/08/12 08:44:35;;;;;;;6.10;5.30;;;27.80;87.70;;;;;;5010094;28;20449;-75
2021/08/12 08:47:01;;;;;;;6.10;5.18;;;27.90;87.80;;;;;;5011716;28;20022;-75
2021/08/12 08:49:32;;;;;;;5.97;5.20;;;28.00;87.30;;;;;;5011676;28;20026;-75
2021/08/12 08:51:58;;;;;;;13.60;5.20;;;28.10;87.10;;;;;;5011714;28;20022;-75
2021/08/12 08:54:25;;;;;;;5.50;4.95;;;28.10;90.00;;;;;;5011665;28;20037;-76
2021/08/12 08:56:51;;;;;;;5.25;4.72;;;28.10;90.30;;;;;;5011784;28;20033;-75
2021/08/12 08:59:18;;;;;;;7.38;5.55;;;28.20;87.20;;;;;;5011402;28;20480;-75
2021/08/12 09:01:44;;;;;;;5.93;4.75;;;28.30;87.40;;;;;;5011804;28;20395;-75
2021/08/12 09:04:12;;;;;;;5.78;4.93;;;28.40;88.50;;;;;;5011399;28;20010;-75
2021/08/12 09:06:38;;;;;;;8.13;4.97;;;28.50;87.70;;;;;;5011818;28;20084;-75
2021/08/12 09:09:03;;;;;;;5.90;5.30;;;28.50;87.40;;;;;;5011727;28;20026;-75
2021/08/12 09:11:29;;;;;;;8.57;5.65;;;28.30;86.80;;;;;;5012238;28;20084;-75
2021/08/12 09:13:55;;;;;;;8.35;5.35;;;28.40;87.20;;;;;;5012100;28;20046;-75
2021/08/12 09:16:29;;;;;;;6.20;5.60;;;28.50;88.30;;;;;;5012184;28;20088;-76
2021/08/12 09:19:24;;;;;;;10.68;5.53;;;28.50;86.90;;;;;;5011725;28;20022;-75
2021/08/12 09:21:59;;;;;;;6.03;5.25;;;28.50;89.00;;;;;;4999542;28;20026;-75
2021/08/12 09:24:25;;;;;;;6.47;5.38;;;28.60;90.00;;;;;;4992710;28;20058;-75
2021/08/12 09:26:52;;;;;;;6.53;5.28;;;28.70;87.10;;;;;;4992787;28;20084;-75
2021/08/12 09:29:30;;;;;;;6.40;4.72;;;28.70;88.30;;;;;;4999495;28;20018;-75
2021/08/12 09:32:01;;;;;;;9.80;4.88;;;28.70;89.30;;;;;;5012299;28;20068;-75
2021/08/12 09:34:45;;;;;;;5.50;5.00;;;28.70;85.70;;;;;;5011603;28;20101;-76
2021/08/12 09:37:11;;;;;;;6.68;5.22;;;28.70;86.30;;;;;;5011655;28;20265;-75
2021/08/12 09:39:38;;;;;;;4.60;4.20;;;28.80;86.70;;;;;;5011855;28;20030;-75
2021/08/12 09:42:05;;;;;;;5.85;5.28;;;28.80;85.50;;;;;;5015061;28;20387;-75
2021/08/12 09:44:36;;;;;;;6.63;4.93;;;28.80;86.10;;;;;;4997515;28;20045;-75
2021/08/12 09:47:05;;;;;;;5.55;4.57;;;28.80;87.40;;;;;;5015091;28;20080;-75
2021/08/12 09:49:45;;;;;;;5.95;5.10;;;28.80;88.00;;;;;;5015120;28;20026;-75
2021/08/12 09:52:34;;;;;;;5.15;4.70;;;28.90;84.90;;;;;;4997287;28;20054;-75
2021/08/12 09:55:17;;;;;;;7.25;4.78;;;29.10;83.60;;;;;;5015007;28;20077;-75
2021/08/12 09:57:51;;;;;;;6.55;4.38;;;29.10;82.50;;;;;;5015011;28;20026;-76
2021/08/12 10:00:47;;;;;;;5.20;4.45;;;29.10;83.30;;;;;;5013754;28;20057;-75
2021/08/12 10:03:30;;;;;;;4.88;4.50;;;29.20;82.20;;;;;;4995217;28;20484;-75
2021/08/12 10:05:58;;;;;;;4.72;4.32;;;29.20;81.80;;;;;;4996278;28;20629;-76
2021/08/12 10:08:37;;;;;;;5.25;4.68;;;29.30;83.10;;;;;;4995310;28;20048;-75
2021/08/12 10:11:19;;;;;;;6.25;4.75;;;29.40;81.40;;;;;;5012952;28;20018;-75
2021/08/12 10:13:46;;;;;;;7.65;4.50;;;29.40;80.80;;;;;;5012710;28;20526;-75
2021/08/12 10:16:14;;;;;;;5.28;4.75;;;29.40;82.30;;;;;;5013951;28;20392;-75
2021/08/12 10:18:42;;;;;;;7.00;4.20;;;29.40;79.30;;;;;;5014228;28;20022;-75
2021/08/12 10:21:10;;;;;;;5.80;4.85;;;29.40;80.20;;;;;;5014481;28;20396;-75
2021/08/12 10:23:38;;;;;;;9.82;4.60;;;29.50;82.00;;;;;;4996814;28;20502;-76
2021/08/12 10:26:04;;;;;;;5.15;4.75;;;29.80;79.80;;;;;;5014467;28;20018;-74
2021/08/12 10:28:33;;;;;;;5.05;4.35;;;29.80;78.90;;;;;;5014024;28;20041;-74
2021/08/12 10:31:02;;;;;;;5.88;4.70;;;29.80;84.30;;;;;;5014347;28;20448;-73
2021/08/12 10:33:28;;;;;;;4.55;4.20;;;29.80;84.10;;;;;;5013352;28;20061;-74
2021/08/12 10:35:56;;;;;;;6.05;4.40;;;29.90;78.80;;;;;;5014244;28;20018;-74
2021/08/12 10:38:21;;;;;;;5.97;4.43;;;29.90;79.70;;;;;;4996165;28;20038;-74
2021/08/12 10:40:49;;;;;;;5.05;4.53;;;29.90;80.50;;;;;;5014131;28;20421;-74
2021/08/12 10:43:26;;;;;;;6.00;4.72;;;30.00;77.90;;;;;;5014083;28;20030;-74
2021/08/12 10:45:59;;;;;;;5.95;5.00;;;30.00;77.90;;;;;;5013872;28;20550;-75
2021/08/12 10:48:28;;;;;;;5.88;4.80;;;30.00;79.70;;;;;;5013562;28;20026;-74
2021/08/12 10:51:11;;;;;;;5.60;4.78;;;30.10;79.30;;;;;;5014009;28;20018;-75
2021/08/12 10:53:40;;;;;;;7.45;4.85;;;30.30;79.30;;;;;;4994927;28;20435;-74
2021/08/12 10:56:08;;;;;;;4.95;4.57;;;30.60;77.30;;;;;;4996259;28;20105;-75
2021/08/12 10:58:40;;;;;;;6.60;5.07;;;30.60;76.60;;;;;;5013493;28;20025;-75
2021/08/12 11:01:08;;;;;;;5.18;4.78;;;30.70;78.90;;;;;;5013684;28;20022;-74
2021/08/12 11:03:34;;;;;;;8.48;5.03;;;30.70;78.10;;;;;;5013314;28;20037;-75
2021/08/12 11:06:04;;;;;;;7.43;5.07;;;30.80;75.30;;;;;;5013549;28;20018;-74
2021/08/12 11:08:59;;;;;;;8.07;5.05;;;30.70;75.30;;;;;;5013247;28;20026;-75
2021/08/12 11:11:30;;;;;;;5.68;5.18;;;30.60;80.90;;;;;;5013444;28;20080;-74
2021/08/12 11:14:00;;;;;;;5.93;4.93;;;30.70;79.70;;;;;;5013007;28;20117;-74
2021/08/12 11:16:49;;;;;;;6.00;5.35;;;30.90;75.60;;;;;;5013469;28;20025;-74
2021/08/12 11:19:21;;;;;;;5.40;4.90;;;30.90;75.40;;;;;;5013199;28;20030;-75
2021/08/12 11:21:48;;;;;;;4.78;4.40;;;30.90;75.00;;;;;;5013561;28;20472;-74
2021/08/12 11:24:23;;;;;;;6.30;4.47;;;30.90;74.00;;;;;;5013259;28;20448;-75
2021/08/12 11:26:48;;;;;;;4.80;4.50;;;31.00;72.80;;;;;;5013023;28;20036;-75
2021/08/12 11:29:29;;;;;;;5.10;4.70;;;31.00;72.00;;;;;;5012903;28;20057;-75
2021/08/12 11:31:55;;;;;;;4.50;4.10;;;31.00;72.50;;;;;;5013144;28;20032;-75
2021/08/12 11:34:50;;;;;;;5.53;4.93;;;31.10;68.70;;;;;;5013049;28;20108;-75
2021/08/12 11:37:20;;;;;;;5.65;5.05;;;31.20;72.70;;;;;;5013019;28;20068;-74
2021/08/12 11:39:49;;;;;;;10.18;5.90;;;31.10;73.20;;;;;;5012842;28;20037;-74
2021/08/12 11:42:26;;;;;;;6.07;5.57;;;31.20;77.40;;;;;;5028176;28;20510;-74
2021/08/12 11:44:54;;;;;;;7.35;6.32;;;31.50;77.90;;;;;;5012251;28;20026;-75
2021/08/12 11:47:20;;;;;;;6.55;5.47;;;31.60;76.80;;;;;;5011931;28;20040;-74
2021/08/12 11:49:50;;;;;;;5.88;5.38;;;31.70;73.70;;;;;;5010387;28;20503;-74
2021/08/12 11:52:26;;;;;;;6.18;5.55;;;31.70;74.50;;;;;;5010877;28;20022;-75
2021/08/12 11:54:57;;;;;;;6.20;5.65;;;31.80;73.50;;;;;;5011128;28;20025;-75
2021/08/12 11:57:47;;;;;;;4.70;4.30;;;31.80;72.50;;;;;;5011169;28;20040;-75
2021/08/12 12:00:17;;;;;;;7.07;5.03;;;31.80;69.50;;;;;;5004375;28;20054;-74
2021/08/12 12:02:49;;;;;;;5.25;4.65;;;31.80;71.00;;;;;;5011742;28;20531;-74
2021/08/12 12:05:17;;;;;;;5.68;4.70;;;31.90;72.70;;;;;;5011846;28;20052;-75
2021/08/12 12:07:49;;;;;;;4.85;4.38;;;32.20;73.10;;;;;;5012174;28;20046;-75
2021/08/12 12:10:42;;;;;;;5.88;4.88;;;32.20;70.20;;;;;;5012464;28;20022;-75
2021/08/12 12:13:09;;;;;;;5.03;4.63;;;32.20;70.10;;;;;;5009452;28;20484;-75
2021/08/12 12:15:39;;;;;;;5.78;5.28;;;32.40;70.20;;;;;;5011694;28;20072;-75
2021/08/12 12:18:05;;;;;;;7.22;4.93;;;32.40;68.50;;;;;;4993079;28;20117;-76
2021/08/12 12:20:34;;;;;;;5.95;5.38;;;32.40;70.20;;;;;;5007507;28;20109;-75
2021/08/12 12:23:04;;;;;;;5.38;4.80;;;32.30;69.10;;;;;;5012248;28;20108;-75
2021/08/12 12:25:33;;;;;;;4.57;4.28;;;32.40;68.90;;;;;;5012081;28;20030;-75
2021/08/12 12:28:00;;;;;;;5.63;4.97;;;32.30;67.20;;;;;;5011482;28;20037;-75
2021/08/12 12:30:27;;;;;;;4.75;4.40;;;32.30;67.20;;;;;;4994308;28;20022;-75
2021/08/12 12:33:09;;;;;;;8.27;4.85;;;32.40;67.70;;;;;;5011642;28;20034;-75
2021/08/12 12:35:40;;;;;;;6.80;4.55;;;32.60;65.70;;;;;;4994291;28;20423;-75
2021/08/12 12:38:07;;;;;;;6.60;4.57;;;32.50;65.60;;;;;;5012107;28;20080;-75
2021/08/12 12:40:35;;;;;;;5.40;4.88;;;32.60;66.10;;;;;;5011919;28;20462;-75
2021/08/12 12:43:02;;;;;;;4.88;4.22;;;32.60;69.20;;;;;;5012001;28;20022;-75
2021/08/12 12:45:28;;;;;;;4.82;4.43;;;32.80;66.90;;;;;;5011444;28;20061;-75
2021/08/12 12:48:09;;;;;;;5.03;4.72;;;32.90;66.40;;;;;;4993417;28;20081;-75
2021/08/12 12:50:49;;;;;;;5.60;5.05;;;32.90;65.90;;;;;;5006604;28;20022;-75
2021/08/12 12:53:30;;;;;;;6.55;5.22;;;33.00;64.30;;;;;;5011540;28;20068;-75